createdAt,value
2016-02-26T00:00:04.669Z,52.05
2016-02-26T00:01:04.640Z,51.86
2016-02-26T00:02:04.628Z,52.05
2016-02-26T00:03:04.599Z,52.15
2016-02-26T00:04:04.571Z,52.34
2016-02-26T00:05:04.573Z,53.39
2016-02-26T00:06:04.529Z,53.29
2016-02-26T00:07:04.501Z,52.53
2016-02-26T00:08:04.472Z,52.81
2016-02-26T00:09:04.443Z,52.81
2016-02-26T00:10:04.430Z,52.62
2016-02-26T00:11:04.401Z,53.1
2016-02-26T00:12:04.373Z,52.81
2016-02-26T00:13:04.345Z,53.29
2016-02-26T00:14:04.331Z,52.91
2016-02-26T00:15:04.304Z,52.81
2016-02-26T00:16:04.290Z,52.62
2016-02-26T00:17:04.247Z,52.62
2016-02-26T00:18:04.233Z,52.91
2016-02-26T00:19:04.205Z,52.34
2016-02-26T00:20:04.192Z,52.72
2016-02-26T00:21:04.148Z,53
2016-02-26T00:22:04.166Z,52.53
2016-02-26T00:23:04.106Z,52.53
2016-02-26T00:24:04.077Z,52.62
2016-02-26T00:25:04.064Z,52.24
2016-02-26T00:26:04.036Z,53
2016-02-26T00:27:04.148Z,53
2016-02-26T00:28:03.995Z,53.49
2016-02-26T00:29:03.966Z,53.49
2016-02-26T00:30:03.937Z,53.49
2016-02-26T00:31:03.909Z,53.67
2016-02-26T00:32:03.896Z,53.49
2016-02-26T00:33:03.868Z,53.77
2016-02-26T00:34:03.838Z,53.58
2016-02-26T00:35:03.810Z,53.58
2016-02-26T00:36:03.829Z,53.58
2016-02-26T00:37:03.768Z,53.67
2016-02-26T00:38:03.740Z,53.49
2016-02-26T00:39:03.726Z,53.49
2016-02-26T00:40:03.683Z,53.39
2016-02-26T00:41:03.701Z,53.67
2016-02-26T00:42:03.642Z,53.39
2016-02-26T00:43:03.612Z,53.29
2016-02-26T00:44:03.584Z,53.49
2016-02-26T00:45:03.572Z,53.39
2016-02-26T00:46:03.543Z,53.29
2016-02-26T00:47:03.530Z,53.2
2016-02-26T00:48:03.486Z,53.1
2016-02-26T00:49:03.472Z,52.91
2016-02-26T00:50:03.460Z,53.29
2016-02-26T00:51:03.416Z,53.58
2016-02-26T00:52:03.403Z,53.49
2016-02-26T00:53:03.359Z,53.58
2016-02-26T00:54:03.361Z,53.58
2016-02-26T00:55:03.317Z,53.49
2016-02-26T00:56:03.304Z,53.58
2016-02-26T00:57:03.260Z,53.67
2016-02-26T00:58:03.263Z,53.86
2016-02-26T00:59:03.219Z,53.67
2016-02-26T01:00:03.206Z,53.96
2016-02-26T01:01:03.177Z,54.03
2016-02-26T01:02:03.148Z,53.93
2016-02-26T01:03:03.120Z,54.03
2016-02-26T01:04:03.108Z,54.06
2016-02-26T01:05:03.063Z,53.77
2016-02-26T01:06:03.050Z,53.49
2016-02-26T01:07:03.021Z,54.06
2016-02-26T01:08:02.993Z,53.65
2016-02-26T01:09:02.979Z,54.03
2016-02-26T01:10:02.951Z,53.86
2016-02-26T01:11:02.923Z,53.86
2016-02-26T01:12:02.883Z,54.41
2016-02-26T01:13:02.874Z,54.41
2016-02-26T01:14:02.817Z,54.25
2016-02-26T01:15:02.792Z,54.25
2016-02-26T01:16:02.782Z,54.15
2016-02-26T01:17:02.718Z,53.93
2016-02-26T01:18:02.716Z,54.22
2016-02-26T01:19:02.652Z,54.79
2016-02-26T01:20:02.619Z,54.63
2016-02-26T01:21:02.601Z,54.53
2016-02-26T01:22:02.588Z,54.13
2016-02-26T01:23:02.557Z,54.22
2016-02-26T01:24:02.730Z,54.25
2016-02-26T01:25:02.528Z,54.22
2016-02-26T01:26:02.467Z,54.15
2016-02-26T01:27:02.437Z,54.03
2016-02-26T01:28:02.408Z,54.41
2016-02-26T01:29:02.426Z,53.93
2016-02-26T01:30:02.365Z,53.65
2016-02-26T01:31:02.336Z,53.65
2016-02-26T01:32:02.322Z,54.25
2016-02-26T01:33:02.294Z,53.77
2016-02-26T01:34:02.265Z,54.15
2016-02-26T01:35:02.253Z,54.15
2016-02-26T01:36:02.224Z,53.84
2016-02-26T01:37:02.196Z,53.93
2016-02-26T01:38:02.166Z,53.84
2016-02-26T01:39:02.138Z,54.15
2016-02-26T01:40:02.126Z,54.25
2016-02-26T01:41:02.097Z,54.22
2016-02-26T01:42:02.068Z,53.74
2016-02-26T01:43:02.040Z,53.65
2016-02-26T01:44:02.027Z,54.34
2016-02-26T01:45:01.998Z,53.93
2016-02-26T01:46:01.985Z,54.22
2016-02-26T01:47:01.957Z,54.41
2016-02-26T01:48:01.929Z,54.22
2016-02-26T01:49:01.900Z,54.25
2016-02-26T01:50:01.871Z,53.93
2016-02-26T01:51:01.858Z,53.93
2016-02-26T01:52:01.845Z,54.03
2016-02-26T01:53:01.801Z,54.03
2016-02-26T01:54:01.773Z,54.32
2016-02-26T01:55:01.759Z,54.22
2016-02-26T01:56:01.715Z,53.84
2016-02-26T01:57:01.703Z,54.22
2016-02-26T01:58:01.675Z,53.93
2016-02-26T01:59:01.645Z,53.84
2016-02-26T02:00:01.633Z,54.13
2016-02-26T02:01:01.603Z,54.03
2016-02-26T02:02:01.575Z,54.13
2016-02-26T02:03:01.547Z,54.13
2016-02-26T02:04:01.518Z,54.13
2016-02-26T02:05:01.505Z,53.65
2016-02-26T02:06:01.477Z,53.45
2016-02-26T02:07:01.464Z,53.55
2016-02-26T02:08:01.294Z,53.65
2016-02-26T02:09:01.407Z,53.55
2016-02-26T02:10:01.393Z,53.93
2016-02-26T02:11:01.350Z,53.74
2016-02-26T02:12:01.321Z,54.22
2016-02-26T02:13:01.324Z,54.22
2016-02-26T02:14:01.295Z,54.13
2016-02-26T02:15:01.282Z,54.32
2016-02-26T02:16:01.223Z,53.93
2016-02-26T02:17:01.209Z,54.22
2016-02-26T02:18:01.181Z,54.32
2016-02-26T02:19:01.168Z,53.84
2016-02-26T02:20:01.123Z,53.93
2016-02-26T02:21:01.376Z,54.13
2016-02-26T02:22:01.082Z,54.13
2016-02-26T02:23:01.069Z,54.22
2016-02-26T02:24:01.040Z,54.13
2016-02-26T02:25:01.012Z,54.22
2016-02-26T02:26:01.093Z,54.13
2016-02-26T02:27:00.970Z,54.03
2016-02-26T02:28:00.926Z,54.89
2016-02-26T02:29:00.914Z,54.13
2016-02-26T02:30:00.886Z,54.7
2016-02-26T02:31:00.856Z,53.84
2016-02-26T02:32:00.828Z,54.13
2016-02-26T02:33:00.814Z,54.32
2016-02-26T02:34:00.787Z,54.41
2016-02-26T02:35:00.758Z,54.7
2016-02-26T02:36:00.745Z,54.7
2016-02-26T02:37:00.716Z,54.13
2016-02-26T02:38:00.703Z,54.79
2016-02-26T02:39:00.659Z,54.79
2016-02-26T02:40:00.630Z,54.5
2016-02-26T02:41:00.711Z,54.79
2016-02-26T02:42:00.589Z,54.89
2016-02-26T02:43:00.561Z,54.79
2016-02-26T02:44:00.563Z,54.89
2016-02-26T02:45:00.503Z,54.89
2016-02-26T02:46:00.490Z,54.79
2016-02-26T02:47:00.478Z,55.08
2016-02-26T02:48:00.434Z,55.08
2016-02-26T02:49:00.421Z,55.08
2016-02-26T02:50:00.392Z,54.99
2016-02-26T02:51:00.363Z,54.99
2016-02-26T02:52:00.334Z,55.08
2016-02-26T02:53:00.322Z,54.89
2016-02-26T02:54:00.293Z,55.18
2016-02-26T02:55:00.265Z,55.18
2016-02-26T02:56:00.237Z,54.89
2016-02-26T02:57:00.223Z,55.08
2016-02-26T02:58:00.194Z,55.55
2016-02-26T02:59:00.166Z,55.55
2016-02-26T03:00:00.138Z,55.27
2016-02-26T03:01:00.140Z,55.46
2016-02-26T03:02:00.097Z,55.46
2016-02-26T03:03:00.067Z,55.36
2016-02-26T03:04:00.070Z,55.08
2016-02-26T03:05:00.042Z,55.18
2016-02-26T03:05:59.986Z,55.46
2016-02-26T03:06:59.974Z,55.18
2016-02-26T03:07:59.946Z,55.18
2016-02-26T03:08:59.917Z,55.08
2016-02-26T03:09:59.889Z,55.46
2016-02-26T03:10:59.875Z,55.27
2016-02-26T03:11:59.848Z,55.08
2016-02-26T03:12:59.850Z,55.36
2016-02-26T03:13:59.806Z,55.55
2016-02-26T03:14:59.762Z,55.36
2016-02-26T03:15:59.764Z,55.46
2016-02-26T03:16:59.736Z,55.36
2016-02-26T03:17:59.941Z,55.55
2016-02-26T03:18:59.679Z,55.27
2016-02-26T03:19:59.650Z,55.55
2016-02-26T03:20:59.622Z,55.55
2016-02-26T03:21:59.593Z,55.46
2016-02-26T03:22:59.596Z,55.55
2016-02-26T03:23:59.535Z,55.55
2016-02-26T03:24:59.524Z,55.08
2016-02-26T03:25:59.495Z,55.08
2016-02-26T03:26:59.498Z,55.18
2016-02-26T03:27:59.328Z,55.36
2016-02-26T03:28:59.424Z,55.08
2016-02-26T03:29:59.412Z,55.27
2016-02-26T03:30:59.384Z,55.08
2016-02-26T03:31:59.370Z,54.99
2016-02-26T03:32:59.326Z,55.18
2016-02-26T03:33:59.297Z,54.79
2016-02-26T03:34:59.269Z,55.08
2016-02-26T03:35:59.240Z,54.7
2016-02-26T03:36:59.258Z,54.7
2016-02-26T03:37:59.199Z,55.08
2016-02-26T03:38:59.170Z,55.27
2016-02-26T03:39:59.158Z,55.08
2016-02-26T03:40:59.113Z,54.7
2016-02-26T03:41:59.116Z,55.18
2016-02-26T03:42:59.072Z,55.08
2016-02-26T03:43:59.059Z,55.08
2016-02-26T03:44:59.030Z,55.36
2016-02-26T03:45:59.002Z,55.27
2016-02-26T03:46:58.972Z,55.08
2016-02-26T03:47:58.960Z,55.27
2016-02-26T03:48:58.932Z,55.55
2016-02-26T03:49:58.918Z,55.36
2016-02-26T03:50:58.875Z,55.08
2016-02-26T03:51:58.861Z,55.27
2016-02-26T03:52:58.832Z,55.27
2016-02-26T03:53:58.820Z,54.99
2016-02-26T03:54:58.776Z,55.46
2016-02-26T03:55:58.763Z,55.27
2016-02-26T03:56:58.719Z,55.08
2016-02-26T03:57:58.721Z,55.27
2016-02-26T03:58:58.677Z,55.08
2016-02-26T03:59:58.648Z,55.36
2016-02-26T04:00:58.620Z,55.46
2016-02-26T04:01:58.607Z,55.46
2016-02-26T04:02:58.579Z,55.55
2016-02-26T04:03:58.565Z,55.18
2016-02-26T04:04:58.365Z,55.36
2016-02-26T04:05:58.523Z,55.27
2016-02-26T04:06:58.480Z,55.46
2016-02-26T04:07:58.451Z,55.55
2016-02-26T04:08:58.422Z,55.46
2016-02-26T04:09:58.394Z,55.46
2016-02-26T04:10:58.381Z,55.46
2016-02-26T04:11:58.352Z,55.18
2016-02-26T04:12:58.324Z,54.99
2016-02-26T04:13:58.296Z,55.46
2016-02-26T04:14:58.298Z,55.55
2016-02-26T04:15:58.255Z,55.27
2016-02-26T04:16:58.225Z,55.27
2016-02-26T04:17:58.197Z,55.36
2016-02-26T04:18:58.183Z,55.46
2016-02-26T04:19:58.155Z,55.36
2016-02-26T04:20:58.377Z,55.27
2016-02-26T04:21:58.099Z,55.46
2016-02-26T04:22:58.085Z,55.36
2016-02-26T04:23:58.057Z,55.36
2016-02-26T04:24:58.028Z,55.08
2016-02-26T04:25:57.999Z,55.55
2016-02-26T04:26:57.988Z,55.08
2016-02-26T04:27:57.958Z,55.75
2016-02-26T04:28:57.930Z,55.08
2016-02-26T04:29:57.917Z,55.08
2016-02-26T04:30:57.873Z,54.99
2016-02-26T04:31:57.859Z,55.36
2016-02-26T04:32:57.832Z,54.99
2016-02-26T04:33:57.834Z,55.27
2016-02-26T04:34:57.774Z,55.36
2016-02-26T04:35:57.761Z,55.36
2016-02-26T04:36:57.732Z,55.36
2016-02-26T04:37:57.719Z,55.84
2016-02-26T04:38:57.675Z,55.55
2016-02-26T04:39:57.663Z,55.55
2016-02-26T04:40:57.634Z,55.18
2016-02-26T04:41:57.605Z,55.36
2016-02-26T04:42:57.608Z,55.55
2016-02-26T04:43:57.564Z,55.36
2016-02-26T04:44:57.551Z,55.36
2016-02-26T04:45:57.523Z,55.55
2016-02-26T04:46:57.494Z,55.36
2016-02-26T04:47:57.481Z,55.27
2016-02-26T04:48:57.421Z,55.65
2016-02-26T04:49:57.424Z,55.84
2016-02-26T04:50:57.379Z,55.36
2016-02-26T04:51:57.351Z,55.18
2016-02-26T04:52:57.323Z,55.36
2016-02-26T04:53:57.341Z,55.18
2016-02-26T04:54:57.280Z,55.36
2016-02-26T04:55:57.252Z,55.84
2016-02-26T04:56:57.223Z,55.94
2016-02-26T04:57:57.039Z,55.55
2016-02-26T04:58:57.183Z,55.75
2016-02-26T04:59:57.154Z,55.65
2016-02-26T05:00:57.126Z,55.55
2016-02-26T05:01:57.112Z,55.94
2016-02-26T05:02:57.084Z,55.75
2016-02-26T05:03:57.086Z,55.84
2016-02-26T05:04:57.032Z,55.75
2016-02-26T05:05:57.019Z,55.65
2016-02-26T05:06:56.976Z,55.65
2016-02-26T05:07:56.962Z,55.75
2016-02-26T05:08:56.934Z,55.72
2016-02-26T05:09:56.921Z,55.65
2016-02-26T05:10:56.893Z,55.94
2016-02-26T05:11:56.864Z,55.46
2016-02-26T05:12:56.835Z,55.84
2016-02-26T05:13:56.807Z,55.84
2016-02-26T05:14:56.793Z,56.04
2016-02-26T05:15:56.765Z,56.04
2016-02-26T05:16:56.736Z,55.53
2016-02-26T05:17:56.709Z,56.2
2016-02-26T05:18:56.679Z,56.32
2016-02-26T05:19:56.651Z,56.32
2016-02-26T05:20:56.622Z,56.04
2016-02-26T05:21:56.609Z,56.13
2016-02-26T05:22:56.597Z,55.84
2016-02-26T05:23:56.567Z,56.13
2016-02-26T05:24:56.555Z,55.75
2016-02-26T05:25:56.511Z,55.91
2016-02-26T05:26:56.483Z,55.82
2016-02-26T05:27:56.453Z,55.94
2016-02-26T05:28:56.441Z,56.01
2016-02-26T05:29:56.412Z,56.23
2016-02-26T05:30:56.384Z,55.91
2016-02-26T05:31:56.355Z,55.91
2016-02-26T05:32:56.326Z,55.94
2016-02-26T05:33:56.298Z,56.1
2016-02-26T05:34:56.285Z,56.01
2016-02-26T05:35:56.257Z,56.51
2016-02-26T05:36:56.228Z,56.01
2016-02-26T05:37:56.199Z,56.1
2016-02-26T05:38:56.171Z,55.91
2016-02-26T05:39:56.157Z,55.91
2016-02-26T05:40:56.129Z,56.1
2016-02-26T05:41:56.115Z,56.38
2016-02-26T05:42:56.103Z,56.38
2016-02-26T05:43:56.059Z,56.48
2016-02-26T05:44:56.031Z,56.2
2016-02-26T05:45:56.002Z,56.29
2016-02-26T05:46:55.973Z,55.91
2016-02-26T05:47:55.961Z,55.82
2016-02-26T05:48:55.948Z,56.01
2016-02-26T05:49:55.904Z,56.58
2016-02-26T05:50:55.890Z,56.1
2016-02-26T05:51:55.847Z,56.48
2016-02-26T05:52:55.834Z,56.1
2016-02-26T05:53:55.806Z,55.91
2016-02-26T05:54:55.776Z,56.2
2016-02-26T05:55:55.763Z,55.91
2016-02-26T05:56:55.720Z,56.01
2016-02-26T05:57:55.706Z,56.1
2016-02-26T05:58:55.677Z,55.91
2016-02-26T05:59:55.649Z,55.91
2016-02-26T06:00:55.621Z,56.1
2016-02-26T06:01:55.608Z,55.91
2016-02-26T06:02:55.580Z,56.01
2016-02-26T06:03:55.550Z,56.1
2016-02-26T06:04:55.538Z,56.29
2016-02-26T06:05:55.493Z,56.01
2016-02-26T06:06:55.480Z,56.48
2016-02-26T06:07:55.499Z,55.91
2016-02-26T06:08:55.471Z,56.1
2016-02-26T06:09:55.410Z,56.1
2016-02-26T06:10:55.398Z,56.2
2016-02-26T06:11:55.353Z,56.01
2016-02-26T06:12:55.324Z,56.1
2016-02-26T06:13:55.312Z,56.1
2016-02-26T06:14:55.284Z,56.01
2016-02-26T06:15:55.099Z,56.38
2016-02-26T06:16:55.226Z,55.82
2016-02-26T06:17:55.198Z,55.91
2016-02-26T06:18:55.184Z,55.72
2016-02-26T06:19:55.156Z,56.48
2016-02-26T06:20:55.127Z,56.01
2016-02-26T06:21:55.099Z,56.38
2016-02-26T06:22:55.086Z,55.91
2016-02-26T06:23:55.042Z,56.29
2016-02-26T06:24:55.028Z,55.82
2016-02-26T06:25:55.000Z,56.2
2016-02-26T06:26:54.987Z,56.38
2016-02-26T06:27:54.943Z,56.29
2016-02-26T06:28:54.947Z,56.29
2016-02-26T06:29:54.902Z,56.1
2016-02-26T06:30:54.889Z,56.2
2016-02-26T06:31:54.844Z,56.01
2016-02-26T06:32:54.832Z,55.82
2016-02-26T06:33:54.802Z,56.2
2016-02-26T06:34:54.775Z,56.2
2016-02-26T06:35:54.761Z,55.62
2016-02-26T06:36:54.733Z,55.91
2016-02-26T06:37:54.704Z,56.2
2016-02-26T06:38:54.707Z,56.01
2016-02-26T06:39:54.662Z,56.01
2016-02-26T06:40:54.682Z,56.48
2016-02-26T06:41:54.591Z,56.38
2016-02-26T06:42:54.573Z,55.82
2016-02-26T06:43:54.544Z,55.82
2016-02-26T06:44:54.531Z,56.01
2016-02-26T06:45:54.489Z,55.91
2016-02-26T06:46:54.475Z,56.1
2016-02-26T06:47:54.446Z,56.01
2016-02-26T06:48:54.417Z,55.91
2016-02-26T06:49:54.389Z,56.04
2016-02-26T06:50:54.377Z,56.48
2016-02-26T06:51:54.347Z,55.84
2016-02-26T06:52:54.335Z,55.91
2016-02-26T06:53:54.306Z,55.72
2016-02-26T06:54:54.278Z,55.94
2016-02-26T06:55:54.265Z,56.38
2016-02-26T06:56:54.220Z,56.1
2016-02-26T06:57:54.191Z,56.01
2016-02-26T06:58:54.179Z,56.58
2016-02-26T06:59:54.151Z,56.1
2016-02-26T07:00:54.122Z,56.01
2016-02-26T07:01:54.093Z,56.48
2016-02-26T07:02:54.080Z,56.1
2016-02-26T07:03:54.051Z,56.01
2016-02-26T07:04:54.023Z,56.01
2016-02-26T07:05:54.182Z,55.94
2016-02-26T07:06:53.966Z,56.38
2016-02-26T07:07:53.954Z,56.01
2016-02-26T07:08:53.940Z,55.75
2016-02-26T07:09:53.895Z,56.6
2016-02-26T07:10:53.883Z,56.04
2016-02-26T07:11:53.840Z,56.01
2016-02-26T07:12:53.826Z,56.48
2016-02-26T07:13:53.798Z,56.41
2016-02-26T07:14:53.769Z,56.51
2016-02-26T07:15:53.740Z,56.2
2016-02-26T07:16:53.727Z,55.75
2016-02-26T07:17:53.699Z,56.23
2016-02-26T07:18:53.669Z,55.94
2016-02-26T07:19:53.658Z,56.01
2016-02-26T07:20:53.614Z,56.04
2016-02-26T07:21:53.600Z,55.94
2016-02-26T07:22:53.588Z,56.1
2016-02-26T07:23:53.558Z,55.94
2016-02-26T07:24:53.531Z,55.94
2016-02-26T07:25:53.502Z,55.94
2016-02-26T07:26:53.474Z,55.84
2016-02-26T07:27:53.507Z,56.13
2016-02-26T07:28:53.432Z,55.84
2016-02-26T07:29:53.402Z,56.23
2016-02-26T07:30:53.374Z,56.04
2016-02-26T07:31:53.345Z,55.94
2016-02-26T07:32:53.333Z,55.94
2016-02-26T07:33:53.305Z,56.04
2016-02-26T07:34:53.276Z,55.84
2016-02-26T07:35:53.248Z,55.94
2016-02-26T07:36:53.218Z,55.94
2016-02-26T07:37:53.190Z,56.23
2016-02-26T07:38:53.177Z,55.65
2016-02-26T07:39:53.149Z,56.04
2016-02-26T07:40:53.120Z,55.94
2016-02-26T07:41:53.107Z,56.04
2016-02-26T07:42:53.078Z,55.65
2016-02-26T07:43:53.050Z,55.65
2016-02-26T07:44:53.052Z,56.04
2016-02-26T07:45:53.009Z,55.84
2016-02-26T07:46:52.981Z,55.65
2016-02-26T07:47:52.951Z,55.46
2016-02-26T07:48:52.954Z,55.75
2016-02-26T07:49:52.894Z,55.84
2016-02-26T07:50:52.881Z,55.55
2016-02-26T07:51:52.852Z,55.75
2016-02-26T07:52:52.825Z,55.65
2016-02-26T07:53:52.796Z,55.75
2016-02-26T07:54:52.783Z,55.75
2016-02-26T07:55:52.769Z,55.75
2016-02-26T07:56:52.725Z,55.84
2016-02-26T07:57:52.727Z,55.65
2016-02-26T07:58:52.731Z,55.75
2016-02-26T07:59:52.656Z,55.84
2016-02-26T08:00:52.643Z,55.55
2016-02-26T08:01:52.614Z,55.55
2016-02-26T08:02:52.820Z,55.55
2016-02-26T08:03:52.557Z,55.46
2016-02-26T08:04:52.528Z,55.46
2016-02-26T08:05:52.499Z,55.55
2016-02-26T08:06:52.471Z,55.27
2016-02-26T08:07:52.490Z,55.27
2016-02-26T08:08:52.446Z,55.65
2016-02-26T08:09:52.401Z,55.65
2016-02-26T08:10:52.373Z,55.27
2016-02-26T08:11:52.360Z,55.46
2016-02-26T08:12:52.331Z,55.18
2016-02-26T08:13:52.303Z,55.36
2016-02-26T08:14:52.274Z,55.27
2016-02-26T08:15:52.261Z,55.18
2016-02-26T08:16:52.233Z,55.27
2016-02-26T08:17:52.204Z,55.36
2016-02-26T08:18:52.175Z,55.46
2016-02-26T08:19:52.162Z,55.27
2016-02-26T08:20:52.134Z,55.27
2016-02-26T08:21:52.105Z,55.46
2016-02-26T08:22:52.077Z,55.18
2016-02-26T08:23:52.064Z,55.27
2016-02-26T08:24:52.036Z,55.27
2016-02-26T08:25:52.007Z,55.27
2016-02-26T08:26:51.978Z,55.55
2016-02-26T08:27:51.950Z,55.46
2016-02-26T08:28:51.936Z,55.46
2016-02-26T08:29:51.908Z,55.46
2016-02-26T08:30:51.880Z,55.65
2016-02-26T08:31:51.866Z,55.36
2016-02-26T08:32:51.885Z,55.27
2016-02-26T08:33:51.888Z,55.36
2016-02-26T08:34:51.812Z,54.79
2016-02-26T08:35:51.768Z,54.89
2016-02-26T08:36:51.740Z,55.08
2016-02-26T08:37:51.726Z,55.18
2016-02-26T08:38:51.682Z,55.18
2016-02-26T08:39:51.684Z,55.18
2016-02-26T08:40:51.640Z,55.08
2016-02-26T08:41:51.628Z,55.08
2016-02-26T08:42:51.631Z,55.08
2016-02-26T08:43:51.586Z,54.82
2016-02-26T08:44:51.543Z,54.79
2016-02-26T08:45:51.514Z,54.89
2016-02-26T08:46:51.485Z,55.11
2016-02-26T08:47:51.472Z,55.01
2016-02-26T08:48:51.444Z,54.89
2016-02-26T08:49:51.431Z,54.89
2016-02-26T08:50:51.386Z,54.79
2016-02-26T08:51:51.373Z,55.08
2016-02-26T08:52:51.345Z,54.91
2016-02-26T08:53:51.332Z,54.7
2016-02-26T08:54:51.288Z,54.82
2016-02-26T08:55:51.275Z,54.72
2016-02-26T08:56:51.262Z,54.91
2016-02-26T08:57:51.218Z,54.82
2016-02-26T08:58:51.205Z,54.63
2016-02-26T08:59:51.395Z,54.82
2016-02-26T09:00:51.163Z,54.72
2016-02-26T09:01:51.119Z,54.91
2016-02-26T09:02:51.107Z,54.72
2016-02-26T09:03:51.078Z,54.82
2016-02-26T09:04:51.143Z,54.82
2016-02-26T09:05:51.021Z,55.2
2016-02-26T09:06:51.008Z,55.2
2016-02-26T09:07:50.995Z,54.72
2016-02-26T09:08:50.951Z,54.82
2016-02-26T09:09:50.954Z,54.82
2016-02-26T09:10:50.909Z,54.72
2016-02-26T09:11:50.881Z,54.82
2016-02-26T09:12:50.852Z,54.34
2016-02-26T09:13:50.839Z,54.44
2016-02-26T09:14:50.826Z,54.15
2016-02-26T09:15:50.782Z,54.34
2016-02-26T09:16:50.754Z,53.96
2016-02-26T09:17:50.740Z,54.06
2016-02-26T09:18:50.712Z,54.34
2016-02-26T09:19:50.684Z,54.15
2016-02-26T09:20:50.655Z,54.44
2016-02-26T09:21:50.642Z,54.15
2016-02-26T09:22:50.613Z,54.25
2016-02-26T09:23:50.584Z,54.25
2016-02-26T09:24:50.572Z,54.25
2016-02-26T09:25:50.543Z,53.86
2016-02-26T09:26:50.514Z,53.96
2016-02-26T09:27:50.486Z,54.06
2016-02-26T09:28:50.473Z,53.96
2016-02-26T09:29:50.444Z,54.25
2016-02-26T09:30:50.447Z,54.15
2016-02-26T09:31:50.403Z,54.15
2016-02-26T09:32:50.374Z,54.25
2016-02-26T09:33:50.361Z,53.86
2016-02-26T09:34:50.333Z,53.96
2016-02-26T09:35:50.304Z,53.86
2016-02-26T09:36:50.291Z,53.86
2016-02-26T09:37:50.246Z,54.06
2016-02-26T09:38:50.235Z,53.86
2016-02-26T09:39:50.221Z,53.58
2016-02-26T09:40:50.177Z,53.96
2016-02-26T09:41:50.149Z,53.86
2016-02-26T09:42:50.167Z,53.86
2016-02-26T09:43:50.107Z,54.06
2016-02-26T09:44:50.078Z,53.86
2016-02-26T09:45:50.051Z,53.86
2016-02-26T09:46:50.037Z,53.77
2016-02-26T09:47:50.008Z,53.86
2016-02-26T09:48:49.995Z,53.77
2016-02-26T09:49:49.983Z,53.77
2016-02-26T09:50:49.939Z,53.86
2016-02-26T09:51:49.942Z,53.49
2016-02-26T09:52:49.882Z,53.77
2016-02-26T09:53:49.869Z,53.49
2016-02-26T09:54:49.840Z,53.61
2016-02-26T09:55:49.828Z,53.58
2016-02-26T09:56:49.798Z,53.58
2016-02-26T09:57:49.770Z,53.51
2016-02-26T09:58:49.757Z,53.7
2016-02-26T09:59:49.728Z,53.32
2016-02-26T10:00:49.700Z,53.22
2016-02-26T10:01:49.874Z,53.89
2016-02-26T10:02:49.643Z,53.32
2016-02-26T10:03:49.630Z,53.61
2016-02-26T10:04:49.601Z,53.51
2016-02-26T10:05:49.572Z,53.7
2016-02-26T10:06:49.544Z,53.32
2016-02-26T10:07:49.531Z,53.51
2016-02-26T10:08:49.502Z,53.41
2016-02-26T10:09:49.489Z,53.51
2016-02-26T10:10:49.461Z,53.8
2016-02-26T10:11:49.432Z,53.41
2016-02-26T10:12:49.404Z,53.51
2016-02-26T10:13:49.391Z,53.51
2016-02-26T10:14:49.363Z,53.51
2016-02-26T10:15:49.332Z,53.41
2016-02-26T10:16:49.318Z,53.51
2016-02-26T10:17:49.287Z,53.51
2016-02-26T10:18:49.247Z,53.61
2016-02-26T10:19:49.221Z,53.61
2016-02-26T10:20:49.184Z,53.13
2016-02-26T10:21:49.144Z,53.22
2016-02-26T10:22:49.103Z,53.13
2016-02-26T10:23:49.071Z,53.13
2016-02-26T10:24:49.053Z,53.03
2016-02-26T10:25:49.019Z,53.22
2016-02-26T10:26:49.018Z,53.03
2016-02-26T10:27:48.970Z,53.22
2016-02-26T10:28:48.956Z,53.32
2016-02-26T10:29:48.910Z,53.32
2016-02-26T10:30:48.895Z,53.13
2016-02-26T10:31:48.865Z,53.32
2016-02-26T10:32:48.836Z,53.22
2016-02-26T10:33:48.806Z,53.22
2016-02-26T10:34:48.778Z,53.32
2016-02-26T10:35:48.795Z,53.13
2016-02-26T10:36:48.735Z,52.94
2016-02-26T10:37:48.722Z,52.46
2016-02-26T10:38:48.692Z,52.46
2016-02-26T10:39:48.663Z,52.84
2016-02-26T10:40:48.635Z,52.84
2016-02-26T10:41:48.715Z,52.75
2016-02-26T10:42:48.593Z,52.84
2016-02-26T10:43:48.580Z,52.84
2016-02-26T10:44:48.551Z,52.55
2016-02-26T10:45:48.523Z,52.75
2016-02-26T10:46:48.495Z,52.46
2016-02-26T10:47:48.481Z,52.36
2016-02-26T10:48:48.453Z,52.26
2016-02-26T10:49:48.268Z,52.46
2016-02-26T10:50:48.395Z,52.65
2016-02-26T10:51:48.384Z,52.84
2016-02-26T10:52:48.354Z,53.41
2016-02-26T10:53:48.326Z,53.32
2016-02-26T10:54:48.313Z,52.96
2016-02-26T10:55:48.128Z,53.25
2016-02-26T10:56:48.286Z,52.1
2016-02-26T10:57:48.242Z,52.39
2016-02-26T10:58:48.495Z,52.39
2016-02-26T10:59:48.186Z,53.16
2016-02-26T11:00:48.172Z,52.39
2016-02-26T11:01:48.144Z,53.16
2016-02-26T11:02:48.131Z,52.58
2016-02-26T11:03:48.102Z,52.48
2016-02-26T11:04:48.074Z,52.39
2016-02-26T11:05:48.046Z,52.48
2016-02-26T11:06:48.032Z,52.29
2016-02-26T11:07:48.004Z,52.39
2016-02-26T11:08:47.975Z,52.39
2016-02-26T11:09:47.963Z,52.29
2016-02-26T11:10:47.966Z,52.29
2016-02-26T11:11:47.905Z,51.91
2016-02-26T11:12:47.892Z,51.91
2016-02-26T11:13:47.896Z,51.81
2016-02-26T11:14:47.851Z,51.91
2016-02-26T11:15:47.823Z,52.01
2016-02-26T11:16:47.793Z,52.01
2016-02-26T11:17:47.765Z,51.91
2016-02-26T11:18:48.284Z,51.81
2016-02-26T11:19:47.755Z,52.01
2016-02-26T11:20:47.695Z,52.29
2016-02-26T11:21:47.667Z,51.62
2016-02-26T11:22:47.653Z,51.62
2016-02-26T11:23:47.625Z,51.81
2016-02-26T11:24:47.611Z,51.81
2016-02-26T11:25:47.583Z,51.72
2016-02-26T11:26:47.555Z,51.62
2016-02-26T11:27:47.542Z,51.43
2016-02-26T11:28:47.513Z,51.34
2016-02-26T11:29:47.486Z,51.81
2016-02-26T11:30:47.456Z,51.81
2016-02-26T11:31:47.491Z,51.62
2016-02-26T11:32:47.415Z,51.15
2016-02-26T11:33:47.402Z,51.91
2016-02-26T11:34:47.405Z,51.81
2016-02-26T11:35:47.344Z,51.81
2016-02-26T11:36:47.332Z,51.81
2016-02-26T11:37:47.304Z,51.81
2016-02-26T11:38:47.291Z,51.15
2016-02-26T11:39:47.263Z,50.86
2016-02-26T11:40:47.233Z,50.95
2016-02-26T11:41:47.204Z,51.15
2016-02-26T11:42:47.193Z,51.81
2016-02-26T11:43:47.163Z,51.75
2016-02-26T11:44:47.151Z,51.84
2016-02-26T11:45:47.746Z,51.72
2016-02-26T11:46:47.109Z,51.91
2016-02-26T11:47:47.081Z,51.72
2016-02-26T11:48:47.052Z,51.24
2016-02-26T11:49:47.117Z,51.36
2016-02-26T11:50:47.009Z,50.98
2016-02-26T11:51:46.982Z,51.46
2016-02-26T11:52:46.953Z,51.43
2016-02-26T11:53:46.940Z,51.07
2016-02-26T11:54:46.928Z,50.7
2016-02-26T11:55:46.899Z,50.89
2016-02-26T11:56:46.886Z,50.89
2016-02-26T11:57:46.858Z,50.5
2016-02-26T11:58:46.844Z,50.79
2016-02-26T11:59:46.800Z,50.7
2016-02-26T12:00:46.787Z,50.41
2016-02-26T12:01:46.774Z,50.41
2016-02-26T12:02:46.746Z,50.7
2016-02-26T12:03:46.733Z,50.6
2016-02-26T12:04:46.688Z,50.5
2016-02-26T12:05:46.675Z,49.93
2016-02-26T12:06:46.647Z,50.12
2016-02-26T12:07:46.619Z,49.84
2016-02-26T12:08:46.605Z,50.31
2016-02-26T12:09:46.593Z,50.7
2016-02-26T12:10:46.548Z,50.6
2016-02-26T12:11:46.535Z,50.43
2016-02-26T12:12:46.523Z,50.5
2016-02-26T12:13:46.493Z,50.02
2016-02-26T12:14:46.465Z,49.93
2016-02-26T12:15:46.437Z,49.74
2016-02-26T12:16:46.893Z,50.31
2016-02-26T12:17:46.395Z,49.84
2016-02-26T12:18:46.382Z,49.95
2016-02-26T12:19:46.370Z,49.86
2016-02-26T12:20:46.340Z,50.31
2016-02-26T12:21:46.312Z,49.93
2016-02-26T12:22:46.284Z,50.12
2016-02-26T12:23:46.270Z,50.02
2016-02-26T12:24:46.242Z,49.93
2016-02-26T12:25:46.229Z,49.93
2016-02-26T12:26:46.201Z,49.35
2016-02-26T12:27:46.172Z,49.55
2016-02-26T12:28:46.159Z,49.93
2016-02-26T12:29:46.131Z,50.31
2016-02-26T12:30:46.102Z,49.93
2016-02-26T12:31:46.105Z,49.74
2016-02-26T12:32:46.061Z,49.26
2016-02-26T12:33:46.048Z,49.74
2016-02-26T12:34:46.066Z,49.55
2016-02-26T12:35:46.006Z,49.26
2016-02-26T12:36:45.977Z,49.55
2016-02-26T12:37:45.949Z,49.26
2016-02-26T12:38:45.952Z,49.64
2016-02-26T12:39:45.924Z,49.45
2016-02-26T12:40:45.910Z,49.45
2016-02-26T12:41:45.866Z,49.45
2016-02-26T12:42:45.854Z,49.45
2016-02-26T12:43:45.825Z,49.35
2016-02-26T12:44:45.796Z,49.45
2016-02-26T12:45:45.768Z,49.45
2016-02-26T12:46:45.910Z,49.64
2016-02-26T12:47:45.726Z,49.35
2016-02-26T12:48:45.713Z,49.35
2016-02-26T12:49:45.684Z,49.55
2016-02-26T12:50:45.656Z,49.35
2016-02-26T12:51:45.659Z,49.45
2016-02-26T12:52:45.615Z,49.45
2016-02-26T12:53:45.601Z,49.35